createdAt,value
2023-02-01T00:00:04.000Z,94.91
2023-02-01T00:05:04.000Z,94.62
2023-02-01T00:10:04.000Z,94.71
2023-02-01T00:15:04.000Z,94.77
2023-02-01T00:20:04.000Z,94.86
2023-02-01T00:25:04.000Z,95.36
2023-02-01T00:30:04.000Z,95.50
2023-02-01T00:35:04.000Z,95.46
2023-02-01T00:40:04.000Z,95.77
2023-02-01T00:45:04.000Z,96.15
2023-02-01T00:50:04.000Z,96.33
2023-02-01T00:55:04.000Z,96.82
2023-02-01T01:00:05.000Z,97.12
2023-02-01T01:05:04.000Z,97.41
2023-02-01T01:10:04.000Z,98.19
2023-02-01T01:15:04.000Z,98.28
2023-02-01T01:20:04.000Z,98.28
2023-02-01T01:25:04.000Z,98.36
2023-02-01T01:30:04.000Z,98.50
2023-02-01T01:35:04.000Z,98.35
2023-02-01T01:40:04.000Z,98.13
2023-02-01T01:45:04.000Z,97.96
2023-02-01T01:50:04.000Z,98.02
2023-02-01T01:55:04.000Z,98.34
2023-02-01T02:00:04.000Z,98.45
2023-02-01T02:05:04.000Z,98.54
2023-02-01T02:10:04.000Z,98.65
2023-02-01T02:15:04.000Z,98.88
2023-02-01T02:20:04.000Z,98.97
2023-02-01T02:25:04.000Z,98.84
2023-02-01T02:30:04.000Z,98.76
2023-02-01T02:35:04.000Z,98.77
2023-02-01T02:40:04.000Z,98.77
2023-02-01T02:45:04.000Z,99.20
2023-02-01T02:50:04.000Z,99.58
2023-02-01T02:55:04.000Z,99.67
2023-02-01T03:00:05.000Z,99.70
2023-02-01T03:05:04.000Z,99.67
2023-02-01T03:10:04.000Z,99.53
2023-02-01T03:15:04.000Z,99.41
2023-02-01T03:20:04.000Z,99.17
2023-02-01T03:25:04.000Z,98.97
2023-02-01T03:30:04.000Z,98.81
2023-02-01T03:35:04.000Z,98.78
2023-02-01T03:40:04.000Z,98.84
2023-02-01T03:45:04.000Z,99.02
2023-02-01T03:50:04.000Z,98.99
2023-02-01T03:55:04.000Z,99.03
2023-02-01T04:00:04.000Z,99.37
2023-02-01T04:05:04.000Z,99.80
2023-02-01T04:10:04.000Z,100.25
2023-02-01T04:15:04.000Z,100.46
2023-02-01T04:20:04.000Z,100.58
2023-02-01T04:25:05.000Z,100.58
2023-02-01T04:30:04.000Z,100.90
2023-02-01T04:35:04.000Z,101.26
2023-02-01T04:40:04.000Z,101.67
2023-02-01T04:45:04.000Z,101.75
2023-02-01T04:50:04.000Z,101.45
2023-02-01T04:55:04.000Z,101.11
2023-02-01T05:00:05.000Z,100.84
2023-02-01T05:05:04.000Z,100.33
2023-02-01T05:10:04.000Z,100.09
2023-02-01T05:15:04.000Z,99.69
2023-02-01T05:20:04.000Z,99.26
2023-02-01T05:25:04.000Z,98.94
2023-02-01T05:30:04.000Z,98.54
2023-02-01T05:35:04.000Z,98.35
2023-02-01T05:40:04.000Z,97.93
2023-02-01T05:45:04.000Z,97.84
2023-02-01T05:50:04.000Z,97.70
2023-02-01T05:55:04.000Z,97.70
2023-02-01T06:00:04.000Z,98.16
2023-02-01T06:05:04.000Z,98.31
2023-02-01T06:10:04.000Z,98.28
2023-02-01T06:15:04.000Z,98.34
2023-02-01T06:20:04.000Z,98.40
2023-02-01T06:25:04.000Z,98.66
2023-02-01T06:30:04.000Z,98.52
2023-02-01T06:35:04.000Z,98.40
2023-02-01T06:40:05.000Z,98.05
2023-02-01T06:45:05.000Z,98.03
2023-02-01T06:50:04.000Z,97.87
2023-02-01T06:55:05.000Z,98.05
2023-02-01T06:59:49.000Z,97.94
2023-02-01T07:05:04.000Z,98.01
2023-02-01T07:10:05.000Z,97.99
2023-02-01T07:15:04.000Z,97.67
2023-02-01T07:20:05.000Z,97.43
2023-02-01T07:25:05.000Z,97.44
2023-02-01T07:30:05.000Z,97.38
2023-02-01T07:35:04.000Z,97.26
2023-02-01T07:40:04.000Z,97.33
2023-02-01T07:45:05.000Z,97.33
2023-02-01T07:50:04.000Z,97.07
2023-02-01T07:55:04.000Z,96.62
2023-02-01T08:00:05.000Z,96.65
2023-02-01T08:05:04.000Z,96.18
2023-02-01T08:10:04.000Z,95.95
2023-02-01T08:15:04.000Z,95.92
2023-02-01T08:20:04.000Z,95.35
2023-02-01T08:25:05.000Z,95.17
2023-02-01T08:30:05.000Z,95.43
2023-02-01T08:35:04.000Z,95.22
2023-02-01T08:40:05.000Z,95.33
2023-02-01T08:45:04.000Z,95.52
2023-02-01T08:50:05.000Z,95.40
2023-02-01T08:55:05.000Z,95.09
2023-02-01T08:59:50.000Z,94.66
2023-02-01T09:05:05.000Z,93.96
2023-02-01T09:10:05.000Z,93.47
2023-02-01T09:15:05.000Z,93.12
2023-02-01T09:20:05.000Z,93.37
2023-02-01T09:25:04.000Z,92.40
2023-02-01T09:30:05.000Z,91.75
2023-02-01T09:35:04.000Z,91.50
2023-02-01T09:40:05.000Z,90.96
2023-02-01T09:45:05.000Z,90.05
2023-02-01T09:50:05.000Z,90.15
2023-02-01T09:55:04.000Z,90.05
2023-02-01T10:00:05.000Z,89.69
2023-02-01T10:05:05.000Z,89.30
2023-02-01T10:10:05.000Z,88.67
2023-02-01T10:15:05.000Z,89.44
2023-02-01T10:20:05.000Z,90.24
2023-02-01T10:25:04.000Z,91.34
2023-02-01T10:30:05.000Z,92.08
2023-02-01T10:35:05.000Z,92.70
2023-02-01T10:40:05.000Z,93.11
2023-02-01T10:45:05.000Z,93.34
2023-02-01T10:50:05.000Z,94.01
2023-02-01T10:55:05.000Z,94.19
2023-02-01T11:00:06.000Z,94.71
2023-02-01T11:05:05.000Z,94.42
2023-02-01T11:10:05.000Z,94.55
2023-02-01T11:15:05.000Z,94.29
2023-02-01T11:20:05.000Z,93.31
2023-02-01T11:25:05.000Z,92.83
2023-02-01T11:30:05.000Z,92.65
2023-02-01T11:35:05.000Z,91.85
2023-02-01T11:40:05.000Z,91.37
2023-02-01T11:45:05.000Z,90.20
2023-02-01T11:50:05.000Z,90.68
2023-02-01T11:55:05.000Z,91.02
2023-02-01T12:00:05.000Z,90.41
2023-02-01T12:05:05.000Z,91.14
2023-02-01T12:10:05.000Z,90.55
2023-02-01T12:15:05.000Z,90.73
2023-02-01T12:20:05.000Z,90.52
2023-02-01T12:25:05.000Z,90.39
2023-02-01T12:30:05.000Z,90.37
2023-02-01T12:35:05.000Z,89.46
2023-02-01T12:40:05.000Z,89.57
2023-02-01T12:45:05.000Z,89.51
2023-02-01T12:50:05.000Z,88.78
2023-02-01T12:55:05.000Z,89.05
2023-02-01T13:00:06.000Z,89.31
2023-02-01T13:05:05.000Z,89.55
2023-02-01T13:10:05.000Z,88.86
2023-02-01T13:15:05.000Z,88.63
2023-02-01T13:20:05.000Z,88.28
2023-02-01T13:25:05.000Z,88.68
2023-02-01T13:30:05.000Z,88.20
2023-02-01T13:35:05.000Z,87.27
2023-02-01T13:40:05.000Z,87.24
2023-02-01T13:45:05.000Z,86.60
2023-02-01T13:50:05.000Z,84.52
2023-02-01T13:55:05.000Z,83.92
2023-02-01T14:00:05.000Z,82.87
2023-02-01T14:05:05.000Z,83.27
2023-02-01T14:10:05.000Z,83.05
2023-02-01T14:15:05.000Z,80.77
2023-02-01T14:20:05.000Z,80.91
2023-02-01T14:25:05.000Z,81.76
2023-02-01T14:30:05.000Z,79.94
2023-02-01T14:35:05.000Z,78.50
2023-02-01T14:40:05.000Z,80.11
2023-02-01T14:45:05.000Z,79.48
2023-02-01T14:50:05.000Z,79.32
2023-02-01T14:55:05.000Z,80.10
2023-02-01T14:59:50.000Z,80.41
2023-02-01T15:05:05.000Z,80.48
2023-02-01T15:10:05.000Z,80.01
2023-02-01T15:15:05.000Z,81.60
2023-02-01T15:20:05.000Z,81.45
2023-02-01T15:25:05.000Z,81.34
2023-02-01T15:30:05.000Z,80.87
2023-02-01T15:35:05.000Z,82.10
2023-02-01T15:40:05.000Z,82.88
2023-02-01T15:45:06.000Z,82.30
2023-02-01T15:50:05.000Z,82.52
2023-02-01T15:55:05.000Z,82.46
2023-02-01T16:00:05.000Z,83.24
2023-02-01T16:05:06.000Z,83.71
2023-02-01T16:10:05.000Z,83.61
2023-02-01T16:15:05.000Z,83.48
2023-02-01T16:20:05.000Z,83.53
2023-02-01T16:25:05.000Z,83.63
2023-02-01T16:30:06.000Z,83.68
2023-02-01T16:35:05.000Z,83.62
2023-02-01T16:40:05.000Z,84.20
2023-02-01T16:45:05.000Z,83.83
2023-02-01T16:50:05.000Z,83.36
2023-02-01T16:55:05.000Z,83.59
2023-02-01T16:59:50.000Z,83.74
2023-02-01T17:05:05.000Z,83.40
2023-02-01T17:10:05.000Z,83.79
2023-02-01T17:15:05.000Z,83.40
2023-02-01T17:20:05.000Z,83.15
2023-02-01T17:25:05.000Z,82.86
2023-02-01T17:30:05.000Z,83.28
2023-02-01T17:35:05.000Z,82.91
2023-02-01T17:40:05.000Z,82.86
2023-02-01T17:45:05.000Z,83.25
2023-02-01T17:50:05.000Z,83.50
2023-02-01T17:55:05.000Z,83.61
2023-02-01T18:00:05.000Z,83.50
2023-02-01T18:05:05.000Z,83.71
2023-02-01T18:10:05.000Z,84.16
2023-02-01T18:15:05.000Z,84.45
2023-02-01T18:20:05.000Z,84.64
2023-02-01T18:25:05.000Z,84.53
2023-02-01T18:30:05.000Z,84.53
2023-02-01T18:35:05.000Z,84.06
2023-02-01T18:40:05.000Z,84.23
2023-02-01T18:45:05.000Z,84.24
2023-02-01T18:50:05.000Z,83.95
2023-02-01T18:55:05.000Z,84.37
2023-02-01T18:59:50.000Z,84.95
2023-02-01T19:05:05.000Z,85.26
2023-02-01T19:10:05.000Z,85.33
2023-02-01T19:15:05.000Z,85.67
2023-02-01T19:20:05.000Z,85.75
2023-02-01T19:25:05.000Z,86.23
2023-02-01T19:30:05.000Z,85.89
2023-02-01T19:35:05.000Z,86.23
2023-02-01T19:40:05.000Z,86.18
2023-02-01T19:45:05.000Z,86.45
2023-02-01T19:50:05.000Z,86.58
2023-02-01T19:55:05.000Z,86.68
2023-02-01T20:00:05.000Z,86.68
2023-02-01T20:05:05.000Z,86.58
2023-02-01T20:10:05.000Z,86.39
2023-02-01T20:15:05.000Z,86.63
2023-02-01T20:20:05.000Z,86.50
2023-02-01T20:25:05.000Z,86.36
2023-02-01T20:30:05.000Z,86.61
2023-02-01T20:35:05.000Z,86.64
2023-02-01T20:40:05.000Z,86.80
2023-02-01T20:45:05.000Z,86.93
2023-02-01T20:50:05.000Z,86.40
2023-02-01T20:55:05.000Z,86.43
2023-02-01T21:00:06.000Z,86.98
2023-02-01T21:05:05.000Z,87.30
2023-02-01T21:10:05.000Z,87.27
2023-02-01T21:15:06.000Z,87.22
2023-02-01T21:20:05.000Z,87.44
2023-02-01T21:25:05.000Z,88.25
2023-02-01T21:30:05.000Z,88.47
2023-02-01T21:35:05.000Z,88.84
2023-02-01T21:40:05.000Z,88.36
2023-02-01T21:45:05.000Z,88.41
2023-02-01T21:50:05.000Z,88.65
2023-02-01T21:55:05.000Z,87.76
2023-02-01T22:00:05.000Z,87.70
2023-02-01T22:05:05.000Z,87.83
2023-02-01T22:10:05.000Z,87.38
2023-02-01T22:15:05.000Z,87.83
2023-02-01T22:20:05.000Z,87.86
2023-02-01T22:25:05.000Z,87.44
2023-02-01T22:30:05.000Z,87.23
2023-02-01T22:35:05.000Z,87.18
2023-02-01T22:40:05.000Z,87.38
2023-02-01T22:45:05.000Z,87.18
2023-02-01T22:50:05.000Z,87.60
2023-02-01T22:55:05.000Z,87.52
2023-02-01T23:00:06.000Z,88.02
2023-02-01T23:05:05.000Z,88.09
2023-02-01T23:10:05.000Z,87.89
2023-02-01T23:15:05.000Z,87.83
2023-02-01T23:20:05.000Z,88.07
2023-02-01T23:25:05.000Z,88.44
2023-02-01T23:30:06.000Z,89.02
2023-02-01T23:35:05.000Z,88.96
2023-02-01T23:40:05.000Z,89.05
2023-02-01T23:45:05.000Z,89.36
2023-02-01T23:50:06.000Z,89.87
2023-02-01T23:55:05.000Z,89.60
